Time;durP1;ratioP1;P1;durP2;ratioP2;P2;SDS_P1;SDS_P2;PMS_P1;PMS_P2;Temp;Humidity;BMP_temperature;BMP_pressure;BME280_temperature;BME280_humidity;BME280_pressure;Samples;Min_cycle;Max_cycle;Signal;HPM_P1;HPM_P2
2023/02/16 00:06:41;;;;;;;60.9;31.8;;;;;;;-0.2;88.6;99740;;;;
2023/02/16 00:16:41;;;;;;;59.2;35.5;;;;;;;-0.3;88.6;99740;;;;
2023/02/16 00:27:41;;;;;;;59.2;35.5;;;;;;;-0.4;88.7;99720;;;;
2023/02/16 00:37:41;;;;;;;59.2;35.5;;;;;;;-0.4;89;99720;;;;
2023/02/16 00:47:41;;;;;;;55.6;30.3;;;;;;;-0.4;89.2;99700;;;;
2023/02/16 00:57:41;;;;;;;55.6;30.3;;;;;;;-0.5;89.3;99700;;;;
2023/02/16 01:18:41;;;;;;;50.6;26.4;;;;;;;-0.6;89.4;99670;;;;
2023/02/16 01:28:41;;;;;;;50.6;26.4;;;;;;;-0.7;89.2;99660;;;;
2023/02/16 01:38:41;;;;;;;50.6;26.4;;;;;;;-0.8;89.3;99650;;;;
2023/02/16 01:48:41;;;;;;;51.8;27.3;;;;;;;-0.9;89.2;99650;;;;
2023/02/16 01:59:41;;;;;;;51.8;27.3;;;;;;;-1.1;88.9;99630;;;;
2023/02/16 02:09:41;;;;;;;52.2;27.8;;;;;;;-1.2;89;99620;;;;
2023/02/16 02:30:41;;;;;;;52.2;27.8;;;;;;;-1.1;90.1;99610;;;;
2023/02/16 02:42:12;;;;;;;54.4;24;;;;;;;-1.1;90.5;99620;;;;
2023/02/16 02:51:41;;;;;;;54.4;24;;;;;;;-1.1;90.5;99620;;;;
2023/02/16 03:01:41;;;;;;;54.4;24;;;;;;;-1.2;90.5;99610;;;;
2023/02/16 03:12:45;;;;;;;40;22.8;;;;;;;-1.2;90.3;99630;;;;
2023/02/16 03:31:41;;;;;;;40;22.8;;;;;;;-1.3;90.2;99640;;;;
2023/02/16 03:42:41;;;;;;;56.9;29.9;;;;;;;-1.3;90.3;99630;;;;
2023/02/16 03:53:41;;;;;;;56.9;29.9;;;;;;;-1.3;90.6;99630;;;;
2023/02/16 04:03:41;;;;;;;56.9;29.9;;;;;;;-1.3;90.6;99620;;;;
2023/02/16 04:14:41;;;;;;;49.1;26.8;;;;;;;-1.3;90.6;99620;;;;
2023/02/16 04:25:41;;;;;;;49.1;26.8;;;;;;;-1.3;90.7;99620;;;;
2023/02/16 04:36:41;;;;;;;49.1;26.8;;;;;;;-1.3;90.8;99610;;;;
2023/02/16 04:47:41;;;;;;;45.8;24.9;;;;;;;-1.2;91.1;99590;;;;
2023/02/16 04:57:41;;;;;;;45.8;24.9;;;;;;;-1.2;91.1;99600;;;;
2023/02/16 05:08:41;;;;;;;41.9;21.5;;;;;;;-1.2;90.9;99600;;;;
2023/02/16 05:18:41;;;;;;;41.9;21.5;;;;;;;-1.2;90.8;99600;;;;
2023/02/16 05:28:41;;;;;;;41.9;21.5;;;;;;;-1.2;90.6;99580;;;;
2023/02/16 05:38:41;;;;;;;34.7;19.1;;;;;;;-1.2;90.6;99580;;;;
2023/02/16 05:48:41;;;;;;;34.7;19.1;;;;;;;-1.2;90.5;99590;;;;
2023/02/16 05:58:41;;;;;;;34.7;19.1;;;;;;;-1.1;90.6;99590;;;;
2023/02/16 06:09:41;;;;;;;37.2;21.5;;;;;;;-1.1;90.6;99590;;;;
2023/02/16 06:19:41;;;;;;;37.2;21.5;;;;;;;-1;90.5;99600;;;;
2023/02/16 06:30:41;;;;;;;37.2;21.5;;;;;;;-0.9;90.4;99600;;;;
2023/02/16 06:40:41;;;;;;;37.3;19.2;;;;;;;-0.7;90.5;99600;;;;
2023/02/16 06:50:41;;;;;;;37.3;19.2;;;;;;;-0.5;90.4;99610;;;;
2023/02/16 07:00:41;;;;;;;37.3;19.2;;;;;;;-0.3;90.3;99610;;;;
2023/02/16 07:11:41;;;;;;;35.4;19.7;;;;;;;-0.1;90.1;99620;;;;
2023/02/16 07:21:42;;;;;;;35.4;19.7;;;;;;;0.1;89.9;99620;;;;
2023/02/16 07:32:41;;;;;;;35.4;19.7;;;;;;;0.3;89.5;99610;;;;
2023/02/16 07:42:41;;;;;;;39.6;21.8;;;;;;;0.6;89.3;99620;;;;
2023/02/16 07:52:41;;;;;;;39.6;21.8;;;;;;;0.8;88.9;99620;;;;
2023/02/16 08:02:41;;;;;;;39.6;21.8;;;;;;;1.1;88.3;99610;;;;
2023/02/16 08:12:41;;;;;;;48.2;24.5;;;;;;;1.4;87.7;99610;;;;
2023/02/16 08:23:42;;;;;;;48.2;24.5;;;;;;;1.7;87;99620;;;;
2023/02/16 08:34:41;;;;;;;48.2;24.5;;;;;;;2.1;86.4;99610;;;;
2023/02/16 08:44:41;;;;;;;45.7;26.8;;;;;;;2.3;85.2;99610;;;;
2023/02/16 08:55:41;;;;;;;45.7;26.8;;;;;;;2.7;84.3;99600;;;;
2023/02/16 09:06:41;;;;;;;45.7;26.8;;;;;;;3.2;84;99600;;;;
2023/02/16 09:16:44;;;;;;;44.2;26.7;;;;;;;3.4;82.8;99600;;;;
2023/02/16 09:27:42;;;;;;;44.2;26.7;;;;;;;3.7;82.1;99590;;;;
2023/02/16 09:37:41;;;;;;;46.1;32.9;;;;;;;4.2;80.6;99590;;;;
2023/02/16 09:47:41;;;;;;;46.1;32.9;;;;;;;4.8;80.7;99570;;;;
2023/02/16 09:58:41;;;;;;;46.1;32.9;;;;;;;5.1;77.2;99570;;;;
2023/02/16 10:09:41;;;;;;;49.3;39.6;;;;;;;5.4;76.4;99580;;;;
2023/02/16 10:19:41;;;;;;;49.3;39.6;;;;;;;5.9;75.5;99570;;;;
2023/02/16 10:30:41;;;;;;;49.3;39.6;;;;;;;6.2;73.7;99570;;;;
2023/02/16 10:40:41;;;;;;;45.1;36.3;;;;;;;6.6;71.9;99570;;;;
2023/02/16 10:51:41;;;;;;;45.1;36.3;;;;;;;6.9;72.9;99560;;;;
2023/02/16 11:01:41;;;;;;;45.1;36.3;;;;;;;7.1;71.4;99540;;;;
2023/02/16 11:11:41;;;;;;;46.9;34.1;;;;;;;7.3;70.9;99520;;;;
2023/02/16 11:22:41;;;;;;;46.9;34.1;;;;;;;7.7;69.5;99500;;;;
2023/02/16 11:32:41;;;;;;;46.9;34.1;;;;;;;8.1;68.7;99490;;;;
2023/02/16 11:43:41;;;;;;;41.6;33.2;;;;;;;8.2;68.4;99470;;;;
2023/02/16 11:54:41;;;;;;;41.6;33.2;;;;;;;8.5;67.8;99470;;;;
2023/02/16 12:05:41;;;;;;;41.6;33.2;;;;;;;8.6;67.4;99440;;;;
2023/02/16 12:15:41;;;;;;;46.1;35;;;;;;;8.7;66.6;99440;;;;
2023/02/16 12:25:41;;;;;;;46.1;35;;;;;;;8.8;66.5;99420;;;;
2023/02/16 12:36:41;;;;;;;46.1;35;;;;;;;9.1;65.9;99410;;;;
2023/02/16 12:46:41;;;;;;;38.8;31.5;;;;;;;9.5;66.2;99390;;;;
2023/02/16 12:57:41;;;;;;;38.8;31.5;;;;;;;9.7;64;99380;;;;
2023/02/16 13:07:41;;;;;;;38.2;27.7;;;;;;;9.8;63.6;99370;;;;
2023/02/16 13:18:43;;;;;;;38.2;27.7;;;;;;;10;62.5;99360;;;;
2023/02/16 13:28:41;;;;;;;38.2;27.7;;;;;;;10;62.8;99360;;;;
2023/02/16 13:39:41;;;;;;;34;26.3;;;;;;;10.1;62.3;99350;;;;
2023/02/16 13:50:41;;;;;;;34;26.3;;;;;;;10.1;62.3;99340;;;;
2023/02/16 14:01:41;;;;;;;34;26.3;;;;;;;10.2;61.5;99330;;;;
2023/02/16 14:12:41;;;;;;;30.3;24.3;;;;;;;10.1;62;99340;;;;
2023/02/16 14:22:41;;;;;;;30.3;24.3;;;;;;;9.8;61.9;99340;;;;
2023/02/16 14:33:41;;;;;;;30.3;24.3;;;;;;;9.7;63.2;99340;;;;
2023/02/16 14:44:41;;;;;;;34.2;21.3;;;;;;;9.6;63.7;99340;;;;
2023/02/16 14:55:41;;;;;;;34.2;21.3;;;;;;;9.3;63.6;99330;;;;
2023/02/16 15:05:41;;;;;;;34.2;21.3;;;;;;;9;64.4;99320;;;;
2023/02/16 15:15:41;;;;;;;23.6;19;;;;;;;8.7;65.2;99310;;;;
2023/02/16 15:26:41;;;;;;;23.6;19;;;;;;;8.3;66.7;99320;;;;
2023/02/16 15:37:41;;;;;;;29.7;22.6;;;;;;;7.9;67.8;99330;;;;
2023/02/16 15:47:41;;;;;;;29.7;22.6;;;;;;;7.6;68.8;99340;;;;
2023/02/16 15:57:41;;;;;;;29.7;22.6;;;;;;;7.5;69.9;99340;;;;
2023/02/16 16:08:41;;;;;;;34.6;24.1;;;;;;;7.2;71.5;99340;;;;
2023/02/16 16:19:41;;;;;;;34.6;24.1;;;;;;;7;72.4;99340;;;;
2023/02/16 16:30:44;;;;;;;34.6;24.1;;;;;;;6.7;73.5;99340;;;;
2023/02/16 16:41:41;;;;;;;45.6;32.5;;;;;;;6.4;74.2;99340;;;;
2023/02/16 16:51:41;;;;;;;45.6;32.5;;;;;;;6.3;75.4;99340;;;;
2023/02/16 17:01:43;;;;;;;45.6;32.5;;;;;;;6.1;75.8;99350;;;;
2023/02/16 17:12:41;;;;;;;47.4;33.6;;;;;;;5.9;76.5;99360;;;;
2023/02/16 17:22:41;;;;;;;47.4;33.6;;;;;;;5.7;76.7;99370;;;;
2023/02/16 17:33:41;;;;;;;47.4;33.6;;;;;;;5.5;76.6;99380;;;;
2023/02/16 17:43:41;;;;;;;50.7;33.9;;;;;;;5.3;76.7;99380;;;;
2023/02/16 17:54:41;;;;;;;50.7;33.9;;;;;;;5;76.7;99380;;;;
2023/02/16 18:04:41;;;;;;;50.7;33.9;;;;;;;4.8;76.9;99380;;;;
2023/02/16 18:14:41;;;;;;;48.2;32.7;;;;;;;4.5;77.1;99380;;;;
2023/02/16 18:25:42;;;;;;;48.2;32.7;;;;;;;4.2;78.3;99370;;;;
2023/02/16 18:36:41;;;;;;;48.2;32.7;;;;;;;4.1;78.5;99380;;;;
2023/02/16 18:47:43;;;;;;;41.3;27.2;;;;;;;3.9;78.8;99380;;;;
2023/02/16 18:57:41;;;;;;;41.3;27.2;;;;;;;3.9;78.5;99380;;;;
2023/02/16 19:07:41;;;;;;;44.8;23.7;;;;;;;3.9;78.6;99390;;;;
2023/02/16 19:18:41;;;;;;;44.8;23.7;;;;;;;3.9;78.2;99400;;;;
2023/02/16 19:28:41;;;;;;;44.8;23.7;;;;;;;3.9;77.9;99400;;;;
2023/02/16 19:39:41;;;;;;;35.7;22;;;;;;;3.8;78;99400;;;;
2023/02/16 19:50:41;;;;;;;35.7;22;;;;;;;3.6;78;99390;;;;
2023/02/16 20:00:41;;;;;;;35.7;22;;;;;;;3.2;78.2;99400;;;;
2023/02/16 20:11:41;;;;;;;39.3;24.2;;;;;;;2.8;78.5;99400;;;;
2023/02/16 20:21:43;;;;;;;39.3;24.2;;;;;;;2.4;78.9;99400;;;;
2023/02/16 20:31:41;;;;;;;39.3;24.2;;;;;;;2.2;79.4;99400;;;;
2023/02/16 20:41:41;;;;;;;51;27.5;;;;;;;2;80.2;99400;;;;
2023/02/16 20:52:41;;;;;;;51;27.5;;;;;;;1.8;80.7;99400;;;;
2023/02/16 21:02:41;;;;;;;51;27.5;;;;;;;1.7;81.8;99390;;;;
2023/02/16 21:12:41;;;;;;;49.8;26.4;;;;;;;1.6;82.2;99380;;;;
2023/02/16 21:22:42;;;;;;;49.8;26.4;;;;;;;1.5;82.2;99390;;;;
2023/02/16 21:32:41;;;;;;;49.8;26.4;;;;;;;1.5;82.8;99390;;;;
2023/02/16 21:42:41;;;;;;;43.3;22.9;;;;;;;1.4;82.6;99370;;;;
2023/02/16 21:53:41;;;;;;;43.3;22.9;;;;;;;1.4;82.8;99380;;;;
2023/02/16 22:03:41;;;;;;;43.3;22.9;;;;;;;1.5;83.1;99380;;;;
2023/02/16 22:14:41;;;;;;;40;22.1;;;;;;;1.5;83.1;99370;;;;
2023/02/16 22:24:41;;;;;;;40;22.1;;;;;;;1.4;83;99370;;;;
2023/02/16 22:35:41;;;;;;;40;22.1;;;;;;;1.3;82.9;99380;;;;
2023/02/16 22:45:41;;;;;;;33.6;21.9;;;;;;;1.2;82.9;99370;;;;
2023/02/16 22:55:41;;;;;;;33.6;21.9;;;;;;;1.2;83.1;99360;;;;
2023/02/16 23:05:41;;;;;;;33.6;21.9;;;;;;;1.1;83.1;99370;;;;
2023/02/16 23:15:41;;;;;;;40.7;21.8;;;;;;;1.1;83.4;99370;;;;
2023/02/16 23:26:41;;;;;;;40.7;21.8;;;;;;;1.3;84;99370;;;;
2023/02/16 23:36:41;;;;;;;37.7;20.6;;;;;;;1.6;83.9;99360;;;;
2023/02/16 23:47:41;;;;;;;37.7;20.6;;;;;;;1.7;83.6;99360;;;;
2023/02/16 23:57:41;;;;;;;37.7;20.6;;;;;;;1.9;83.6;99360;;;;
